地図

経路データ

SID SEASON NUMBER BASIN SUBBASIN NAME ISO_TIME NATURE LAT LON WMO_WIND WMO_PRES WMO_AGENCY TRACK_TYPE DIST2LAND LANDFALL IFLAG USA_AGENCY USA_ATCF_ID USA_LAT USA_LON USA_RECORD USA_STATUS USA_WIND USA_PRES USA_SSHS USA_R34_NE USA_R34_SE USA_R34_SW USA_R34_NW USA_R50_NE USA_R50_SE USA_R50_SW USA_R50_NW USA_R64_NE USA_R64_SE USA_R64_SW USA_R64_NW USA_POCI USA_ROCI USA_RMW USA_EYE TOKYO_LAT TOKYO_LON TOKYO_GRADE TOKYO_WIND TOKYO_PRES TOKYO_R50_DIR TOKYO_R50_LONG TOKYO_R50_SHORT TOKYO_R30_DIR TOKYO_R30_LONG TOKYO_R30_SHORT TOKYO_LAND CMA_LAT CMA_LON CMA_CAT CMA_WIND CMA_PRES HKO_LAT HKO_LON HKO_CAT HKO_WIND HKO_PRES NEWDELHI_LAT NEWDELHI_LON NEWDELHI_GRADE NEWDELHI_WIND NEWDELHI_PRES NEWDELHI_CI NEWDELHI_DP NEWDELHI_POCI REUNION_LAT REUNION_LON REUNION_TYPE REUNION_WIND REUNION_PRES REUNION_TNUM REUNION_CI REUNION_RMW REUNION_R34_NE REUNION_R34_SE REUNION_R34_SW REUNION_R34_NW REUNION_R50_NE REUNION_R50_SE REUNION_R50_SW REUNION_R50_NW REUNION_R64_NE REUNION_R64_SE REUNION_R64_SW REUNION_R64_NW BOM_LAT BOM_LON BOM_TYPE BOM_WIND BOM_PRES BOM_TNUM BOM_CI BOM_RMW BOM_R34_NE BOM_R34_SE BOM_R34_SW BOM_R34_NW BOM_R50_NE BOM_R50_SE BOM_R50_SW BOM_R50_NW BOM_R64_NE BOM_R64_SE BOM_R64_SW BOM_R64_NW BOM_ROCI BOM_POCI BOM_EYE BOM_POS_METHOD BOM_PRES_METHOD NADI_LAT NADI_LON NADI_CAT NADI_WIND NADI_PRES WELLINGTON_LAT WELLINGTON_LON WELLINGTON_WIND WELLINGTON_PRES DS824_LAT DS824_LON DS824_STAGE DS824_WIND DS824_PRES TD9636_LAT TD9636_LON TD9636_STAGE TD9636_WIND TD9636_PRES TD9635_LAT TD9635_LON TD9635_WIND TD9635_PRES TD9635_ROCI NEUMANN_LAT NEUMANN_LON NEUMANN_CLASS NEUMANN_WIND NEUMANN_PRES MLC_LAT MLC_LON MLC_CLASS MLC_WIND MLC_PRES USA_GUST BOM_GUST BOM_GUST_PER REUNION_GUST REUNION_GUST_PER USA_SEAHGT USA_SEARAD_NE USA_SEARAD_SE USA_SEARAD_SW USA_SEARAD_NW STORM_SPEED STORM_DIR
2016199N18131 2016 31 WP MM NOT_NAMED 2016-07-16 18:00:00 NR 18.3000 130.900 main 851 849 O_____________ jtwc_wp WP032016 18.3000 130.900 DB 20 1007 -3 1010 115 40 14 329
2016199N18131 2016 31 WP MM NOT_NAMED 2016-07-16 21:00:00 NR 18.8777 130.536 main 858 837 P_____________ WP032016 18.8777 130.536 DB 20 1007 -3 1010 117 40 13 328
2016199N18131 2016 31 WP MM NOT_NAMED 2016-07-17 00:00:00 TS 19.3750 130.200 main 838 813 O_O___________ jtwc_wp WP032016 19.4000 130.200 DB 20 1007 -3 1011 120 40 19.3000 130.200 1 25 1002 11 328
2016199N18131 2016 31 WP MM NOT_NAMED 2016-07-17 03:00:00 TS 19.7975 129.926 main 813 799 P_P___________ WP032016 19.8424 129.920 DB 22 1005 -3 1011 125 40 19.7076 129.938 1 27 1001 10 332
2016199N18131 2016 31 WP MM NOT_NAMED 2016-07-17 06:00:00 TS 20.2571 129.700 main 804 797 O_O___________ jtwc_wp WP032016 20.3000 129.700 TD 25 1004 -1 1011 130 40 20.2000 129.700 1 29 1000 11 341
2016199N18131 2016 31 WP MM NOT_NAMED 2016-07-17 09:00:00 TS 20.8599 129.536 main 804 804 P_P___________ WP032016 20.8923 129.572 TD 25 1004 -1 1010 135 40 20.8274 129.500 1 29 1000 13 345
2016199N18131 2016 31 WP MM NOT_NAMED 2016-07-17 12:00:00 TS 21.5000 129.350 main 818 786 O_O___________ jtwc_wp WP032016 21.5000 129.400 TD 25 1004 -1 1010 140 40 21.5000 129.300 1 29 1000 13 339
2016199N18131 2016 31 WP MM NOT_NAMED 2016-07-17 15:00:00 TS 22.0614 129.033 main 772 724 P_P___________ WP032016 22.0003 129.008 TD 22 1005 -1 1009 140 40 22.1225 129.057 1 27 1001 13 331
2016199N18131 2016 31 WP MM NOT_NAMED 2016-07-17 18:00:00 TS 22.6000 128.700 main 724 679 O_O___________ jtwc_wp WP032016 22.5000 128.600 DB 20 1007 -3 1009 140 40 22.7000 128.800 1 25 1002 12 333
2016199N18131 2016 31 WP MM NOT_NAMED 2016-07-17 21:00:00 TS 23.1462 128.423 main 679 654 P_P___________ WP032016 23.0924 128.333 DB 22 1005 -3 1009 140 40 23.2001 128.513 1 25 1002 12 339
2016199N18131 2016 31 WP MM NOT_NAMED 2016-07-18 00:00:00 TS 23.7000 128.250 main 654 634 O_O___________ jtwc_wp WP032016 23.7000 128.200 TD 25 1004 -1 1009 140 40 23.7000 128.300 1 25 1002 11 352
2016199N18131 2016 31 WP MM NOT_NAMED 2016-07-18 03:00:00 TS 24.2525 128.259 main 641 635 P_P___________ WP032016 24.2350 128.242 TD 22 1005 -1 1009 140 40 24.2699 128.277 1 25 1002 12 2
2016199N18131 2016 31 WP MM NOT_NAMED 2016-07-18 06:00:00 TS 24.8500 128.300 main 634 624 O_O___________ jtwc_wp WP032016 24.8000 128.300 DB 20 1006 -3 1010 140 40 24.9000 128.300 1 25 1002 13 357
2016199N18131 2016 31 WP MM NOT_NAMED 2016-07-18 09:00:00 TS 25.5726 128.176 main 626 592 P_P___________ WP032016 25.5226 128.151 DB 20 1006 -3 1010 140 40 25.6225 128.200 1 25 1002 14 351
2016199N18131 2016 31 WP MM NOT_NAMED 2016-07-18 12:00:00 TS 26.2500 128.050 main 582 542 O_O___________ jtwc_wp WP032016 26.2000 128.000 DB 20 1006 -3 1010 140 40 26.3000 128.100 1 25 1002 12 355
2016199N18131 2016 31 WP MM NOT_NAMED 2016-07-18 15:00:00 TS 26.7312 128.056 main 542 500 P_P___________ WP032016 26.6525 128.027 DB 20 1006 -3 1010 140 40 26.8100 128.085 1 25 1002 9 3
2016199N18131 2016 31 WP MM NOT_NAMED 2016-07-18 18:00:00 TS 27.1000 128.100 main 500 470 O_O___________ jtwc_wp WP032016 27.0000 128.100 DB 20 1007 -3 1010 140 40 27.2000 128.100 1 25 1002 7 4
2016199N18131 2016 31 WP MM NOT_NAMED 2016-07-18 21:00:00 TS 27.4362 128.096 main 470 440 P_P___________ WP032016 27.3500 128.100 DB 17 1008 -3 1010 140 40 27.5225 128.093 1 25 1002 7 1
2016199N18131 2016 31 WP MM NOT_NAMED 2016-07-19 00:00:00 TS 27.7500 128.100 main 430 400 O_O___________ jtwc_wp WP032016 27.7000 128.100 DB 15 1010 -3 1010 140 40 27.8000 128.100 1 25 1002 7 3
2016199N18131 2016 31 WP MM NOT_NAMED 2016-07-19 03:00:00 TS 28.0900 128.139 main 400 367 P_P___________ WP032016 28.0875 128.137 DB 15 1010 -3 1010 140 40 28.0925 128.140 1 25 1002 7 7
2016199N18131 2016 31 WP MM NOT_NAMED 2016-07-19 06:00:00 TS 28.4500 128.200 main 357 O_O___________ jtwc_wp WP032016 28.5000 128.200 DB 15 1010 -3 1010 140 40 28.4000 128.200 1 25 1002 7 9

デジタル台風データ・検索

IBTrACS Databaseについて

本データベースは、米国NOAAが公開する1842年以降の世界の熱帯低気圧のベストトラックデータアーカイブInternational Best Track Archive for Climate Stewardship (IBTrACS)を、ウェブで閲覧しやすい形式に変換したものです。

最終更新日:2021-11-26